Mc Faddin, Texas
Current Conditions -  °F | °C
As of 7:35 AM on Sunday 23 Nov 2014 (Local Time) from KPKV Reporting Station
Clear Clear  
Wind Chill: 14°   Ceiling: Unl
Heat Index: 14°   Visibility: 10mi
Dew Point: 14°   Wind: 7mph
Humidity: 97%   Direction: 210°SSW
Pressure: 29.71"   Gusts: NA
Location:  28.5526°N, 97.018°W
Report Text: KPKV 231335Z AUTO 21006KT 10SM CLR 14/14 A2971 RMK AO2 T01410136
Loading
Personal Weather Stations






























Interactive Weather Map New forecast layout! Learn more

10-Day Weather Forecast

Advertisements
Track Severe Weather on mobile